createdAt,value
2023-03-26T00:00:17.257Z,8.43
2023-03-26T00:06:08.810Z,8.41
2023-03-26T00:12:01.632Z,8.40
2023-03-26T00:17:51.836Z,8.31
2023-03-26T00:23:13.474Z,8.25
2023-03-26T00:28:35.718Z,8.24
2023-03-26T00:34:27.948Z,8.22
2023-03-26T00:47:21.344Z,8.22
2023-03-26T00:52:46.324Z,8.23
2023-03-26T00:58:15.161Z,8.19
2023-03-26T01:03:52.993Z,8.19
2023-03-26T01:10:38.804Z,8.22
2023-03-26T01:16:37.422Z,8.15
2023-03-26T01:22:01.543Z,8.10
2023-03-26T01:28:00.977Z,8.03
2023-03-26T01:42:08.285Z,7.81
2023-03-26T01:47:39.999Z,7.74
2023-03-26T01:54:02.143Z,7.69
2023-03-26T02:00:11.788Z,7.62
2023-03-26T02:13:45.578Z,7.61
2023-03-26T02:19:21.931Z,7.68
2023-03-26T02:24:43.562Z,7.79
2023-03-26T02:31:04.993Z,7.95
2023-03-26T02:36:27.503Z,7.90
2023-03-26T02:41:52.113Z,7.86
2023-03-26T02:47:13.396Z,8.01
2023-03-26T02:53:37.684Z,8.14
2023-03-26T02:59:30.429Z,8.17
2023-03-26T03:06:03.138Z,8.21
2023-03-26T03:11:56.871Z,8.24
2023-03-26T03:17:55.901Z,8.29
2023-03-26T03:23:49.092Z,8.33
2023-03-26T03:30:45.932Z,8.33
2023-03-26T03:37:11.009Z,8.04
2023-03-26T03:42:46.641Z,7.86
2023-03-26T03:49:17.076Z,7.95
2023-03-26T03:55:07.379Z,8.07
2023-03-26T04:01:33.068Z,8.00
2023-03-26T04:07:37.110Z,7.98
2023-03-26T04:13:29.467Z,8.09
2023-03-26T04:19:58.218Z,8.20
2023-03-26T04:25:30.731Z,8.22
2023-03-26T04:33:31.860Z,8.09
2023-03-26T04:38:53.392Z,7.99
2023-03-26T04:44:22.641Z,8.07
2023-03-26T04:50:45.469Z,8.13
2023-03-26T04:56:44.145Z,8.14
2023-03-26T05:02:59.499Z,8.23
2023-03-26T05:08:56.500Z,8.29
2023-03-26T05:14:38.753Z,8.31
2023-03-26T05:20:20.702Z,8.36
2023-03-26T05:25:41.382Z,8.42
2023-03-26T05:31:10.144Z,8.36
2023-03-26T05:36:37.935Z,8.39
2023-03-26T05:42:23.329Z,8.36
2023-03-26T05:48:00.053Z,8.32
2023-03-26T05:53:21.585Z,8.37
2023-03-26T05:59:22.500Z,8.60
2023-03-26T06:05:54.189Z,8.82
2023-03-26T06:12:16.466Z,9.06
2023-03-26T06:18:41.195Z,9.29
2023-03-26T06:25:11.459Z,9.58
2023-03-26T06:32:18.514Z,9.82
2023-03-26T06:37:48.209Z,10.08
2023-03-26T06:44:14.944Z,10.10
2023-03-26T06:51:12.945Z,10.40
2023-03-26T06:57:05.682Z,10.44
2023-03-26T07:03:30.026Z,10.31
2023-03-26T07:09:19.186Z,10.22
2023-03-26T07:15:40.326Z,10.38
2023-03-26T07:30:57.179Z,9.98
2023-03-26T07:37:53.117Z,9.98
2023-03-26T07:44:17.671Z,10.25
2023-03-26T07:58:36.826Z,10.56
2023-03-26T08:04:51.329Z,11.01
2023-03-26T08:11:26.125Z,11.68
2023-03-26T08:17:11.751Z,11.98
2023-03-26T08:22:41.841Z,12.51
2023-03-26T08:28:16.496Z,13.41
2023-03-26T08:33:45.902Z,14.20
2023-03-26T08:39:06.803Z,14.59
2023-03-26T08:44:58.055Z,15.72
2023-03-26T08:50:46.829Z,20.12
2023-03-26T08:56:19.943Z,28.54
2023-03-26T09:02:21.798Z,29.11
2023-03-26T09:08:00.663Z,29.95
2023-03-26T09:13:28.323Z,31.13
2023-03-26T09:19:30.731Z,31.72
2023-03-26T09:24:54.660Z,31.76
2023-03-26T09:30:22.211Z,28.98
2023-03-26T09:35:54.153Z,24.60
2023-03-26T09:41:21.718Z,21.95
2023-03-26T09:47:03.773Z,22.56
2023-03-26T09:52:50.216Z,25.33
2023-03-26T09:58:38.342Z,25.42
2023-03-26T10:04:40.547Z,22.85
2023-03-26T10:10:19.875Z,21.25
2023-03-26T10:15:52.499Z,19.59
2023-03-26T10:21:34.843Z,18.75
2023-03-26T10:27:17.551Z,19.56
2023-03-26T10:33:09.768Z,19.83
2023-03-26T10:38:52.633Z,19.45
2023-03-26T10:44:35.338Z,18.38
2023-03-26T10:50:04.872Z,17.97
2023-03-26T10:55:33.940Z,19.99
2023-03-26T11:01:05.589Z,23.24
2023-03-26T11:06:31.179Z,23.30
2023-03-26T11:12:37.313Z,23.17
2023-03-26T11:18:23.922Z,22.37
2023-03-26T11:24:04.863Z,21.57
2023-03-26T11:29:49.092Z,20.24
2023-03-26T11:35:15.997Z,20.24
2023-03-26T11:40:48.876Z,19.77
2023-03-26T11:46:18.793Z,19.05
2023-03-26T11:51:40.324Z,18.34
2023-03-26T11:57:10.236Z,18.07
2023-03-26T12:02:38.729Z,17.70
2023-03-26T12:08:00.888Z,17.48
2023-03-26T12:13:42.173Z,17.09
2023-03-26T12:19:10.187Z,16.71
2023-03-26T12:24:32.698Z,16.33
2023-03-26T12:30:35.579Z,16.20
2023-03-26T12:35:58.068Z,15.94
2023-03-26T12:44:42.140Z,15.69
2023-03-26T12:48:26.636Z,15.67
2023-03-26T12:54:28.834Z,15.29
2023-03-26T13:00:12.252Z,15.00
2023-03-26T13:06:10.625Z,14.85
2023-03-26T13:12:00.827Z,14.59
2023-03-26T13:18:02.429Z,14.59
2023-03-26T13:39:19.270Z,13.60
2023-03-26T14:01:01.940Z,12.74
2023-03-26T14:06:42.112Z,12.80
2023-03-26T14:12:26.489Z,12.68
2023-03-26T14:18:06.157Z,12.68
2023-03-26T14:24:00.653Z,12.67
2023-03-26T14:29:35.152Z,12.88
2023-03-26T14:35:20.198Z,12.93
2023-03-26T14:41:10.514Z,12.79
2023-03-26T14:47:01.600Z,12.68
2023-03-26T14:53:01.291Z,12.43
2023-03-26T14:58:47.855Z,12.28
2023-03-26T15:04:30.615Z,12.14
2023-03-26T15:10:10.276Z,12.10
2023-03-26T15:15:55.908Z,12.08
2023-03-26T15:21:53.253Z,12.01
2023-03-26T15:27:26.851Z,12.02
2023-03-26T15:33:24.827Z,11.94
2023-03-26T15:39:05.522Z,11.89
2023-03-26T15:45:00.657Z,11.65
2023-03-26T15:50:33.871Z,11.35
2023-03-26T15:56:07.311Z,11.10
2023-03-26T16:09:27.095Z,11.29
2023-03-26T16:14:48.568Z,11.15
2023-03-26T16:20:32.676Z,11.05
2023-03-26T16:26:17.191Z,10.80
2023-03-26T16:31:39.447Z,10.72
2023-03-26T16:37:00.817Z,10.75
2023-03-26T16:42:27.710Z,10.72
2023-03-26T16:48:01.631Z,10.60
2023-03-26T17:01:32.648Z,10.43
2023-03-26T17:07:08.826Z,10.31
2023-03-26T17:12:33.817Z,10.20
2023-03-26T17:18:19.484Z,9.93
2023-03-26T17:24:07.986Z,9.90
2023-03-26T17:30:03.911Z,9.85
2023-03-26T17:35:38.108Z,9.83
2023-03-26T17:40:59.670Z,9.77
2023-03-26T17:46:56.044Z,9.61
2023-03-26T17:52:48.420Z,9.25
2023-03-26T17:58:29.195Z,9.13
2023-03-26T18:03:51.569Z,9.02
2023-03-26T18:09:24.652Z,8.91
2023-03-26T18:15:19.289Z,8.81
2023-03-26T18:20:43.884Z,8.77
2023-03-26T18:26:43.253Z,8.76
2023-03-26T18:32:40.939Z,8.89
2023-03-26T18:38:03.505Z,8.92
2023-03-26T18:43:35.135Z,8.84
2023-03-26T18:49:03.242Z,8.72
2023-03-26T18:54:24.929Z,8.69
2023-03-26T19:00:28.499Z,8.52
2023-03-26T19:05:50.409Z,8.42
2023-03-26T19:11:44.238Z,8.35
2023-03-26T19:17:35.435Z,8.30
2023-03-26T19:22:59.930Z,8.27
2023-03-26T19:28:56.340Z,8.12
2023-03-26T19:34:26.101Z,7.98
2023-03-26T19:39:51.959Z,7.88
2023-03-26T19:45:59.675Z,7.81
2023-03-26T19:51:24.116Z,7.73
2023-03-26T19:56:44.940Z,7.61
2023-03-26T20:02:10.919Z,7.55
2023-03-26T20:08:15.125Z,7.51
2023-03-26T20:13:44.970Z,7.46
2023-03-26T20:19:05.851Z,7.39
2023-03-26T20:24:34.971Z,7.42
2023-03-26T20:29:56.036Z,7.54
2023-03-26T20:35:35.537Z,7.67
2023-03-26T20:40:58.316Z,7.83
2023-03-26T20:46:21.456Z,7.95
2023-03-26T20:51:43.718Z,8.01
2023-03-26T20:57:04.688Z,8.07
2023-03-26T21:02:27.111Z,8.07
2023-03-26T21:07:48.710Z,8.12
2023-03-26T21:13:25.213Z,8.18
2023-03-26T21:18:46.525Z,8.21
2023-03-26T21:24:23.912Z,8.22
2023-03-26T21:29:44.874Z,8.20
2023-03-26T21:35:06.443Z,8.19
2023-03-26T21:40:28.054Z,8.04
2023-03-26T21:45:50.385Z,7.89
2023-03-26T21:51:14.832Z,7.75
2023-03-26T21:56:41.618Z,7.69
2023-03-26T22:02:13.839Z,7.69
2023-03-26T22:07:47.510Z,7.67
2023-03-26T22:13:08.426Z,7.59
2023-03-26T22:18:30.139Z,7.63
2023-03-26T22:23:54.653Z,7.49
2023-03-26T22:29:15.809Z,7.45
2023-03-26T22:34:38.143Z,7.52
2023-03-26T22:40:00.110Z,7.62
2023-03-26T22:45:20.620Z,7.55
2023-03-26T22:50:41.299Z,7.57
2023-03-26T22:56:02.921Z,7.50
2023-03-26T23:01:24.255Z,7.42
2023-03-26T23:06:45.295Z,7.36
2023-03-26T23:12:08.555Z,7.33
2023-03-26T23:17:29.505Z,7.34
2023-03-26T23:22:50.764Z,7.34
2023-03-26T23:28:12.036Z,7.42
2023-03-26T23:33:35.393Z,7.52
2023-03-26T23:38:56.573Z,7.64
2023-03-26T23:44:17.586Z,7.74
2023-03-26T23:49:38.258Z,7.81
2023-03-26T23:54:59.920Z,7.86
